createdAt,value
2018-10-17T00:02:02.368Z,12.20
2018-10-17T00:04:30.103Z,12.10
2018-10-17T00:06:57.981Z,12.00
2018-10-17T00:09:25.947Z,12.00
2018-10-17T00:11:53.691Z,12.00
2018-10-17T00:14:21.514Z,12.10
2018-10-17T00:16:49.427Z,12.00
2018-10-17T00:19:17.218Z,11.90
2018-10-17T00:21:45.048Z,11.90
2018-10-17T00:24:12.789Z,12.00
2018-10-17T00:26:40.576Z,11.90
2018-10-17T00:29:08.502Z,11.90
2018-10-17T00:31:36.332Z,12.00
2018-10-17T00:34:04.191Z,12.00
2018-10-17T00:36:32.055Z,11.90
2018-10-17T00:38:59.966Z,11.90
2018-10-17T00:41:27.725Z,11.80
2018-10-17T00:43:55.602Z,11.70
2018-10-17T00:46:23.397Z,11.70
2018-10-17T00:48:51.344Z,11.70
2018-10-17T00:51:19.024Z,11.70
2018-10-17T00:53:46.811Z,11.70
2018-10-17T00:56:14.634Z,11.70
2018-10-17T00:58:46.853Z,11.60
2018-10-17T01:01:14.684Z,11.60
2018-10-17T01:03:42.342Z,11.70
2018-10-17T01:06:10.224Z,11.70
2018-10-17T01:08:37.951Z,11.60
2018-10-17T01:11:05.679Z,11.60
2018-10-17T01:13:33.544Z,11.60
2018-10-17T01:16:01.561Z,11.60
2018-10-17T01:18:29.395Z,11.60
2018-10-17T01:20:57.218Z,11.60
2018-10-17T01:23:25.017Z,11.60
2018-10-17T01:25:52.936Z,11.60
2018-10-17T01:28:20.756Z,11.50
2018-10-17T01:30:48.707Z,11.50
2018-10-17T01:33:16.462Z,11.50
2018-10-17T01:35:44.258Z,11.50
2018-10-17T01:38:11.982Z,11.50
2018-10-17T01:40:39.741Z,11.50
2018-10-17T01:43:07.664Z,11.50
2018-10-17T01:45:35.491Z,11.40
2018-10-17T01:48:03.257Z,11.40
2018-10-17T01:50:31.015Z,11.40
2018-10-17T01:52:58.832Z,11.40
2018-10-17T01:55:26.669Z,11.40
2018-10-17T01:57:54.490Z,11.40
2018-10-17T02:00:22.325Z,11.50
2018-10-17T02:02:50.045Z,11.60
2018-10-17T02:05:17.847Z,11.60
2018-10-17T02:07:45.657Z,11.60
2018-10-17T02:10:13.460Z,11.70
2018-10-17T02:12:41.380Z,11.70
2018-10-17T02:15:09.270Z,11.70
2018-10-17T02:17:37.249Z,11.70
2018-10-17T02:20:05.076Z,11.80
2018-10-17T02:22:32.867Z,11.90
2018-10-17T02:25:00.652Z,11.90
2018-10-17T02:27:28.511Z,11.90
2018-10-17T02:29:56.343Z,12.00
2018-10-17T02:32:24.373Z,12.00
2018-10-17T02:35:23.942Z,11.90
2018-10-17T02:37:51.775Z,12.00
2018-10-17T02:40:19.580Z,12.00
2018-10-17T02:42:47.298Z,12.00
2018-10-17T02:45:15.011Z,12.00
2018-10-17T02:47:42.707Z,11.60
2018-10-17T02:50:11.951Z,11.90
2018-10-17T02:52:40.746Z,11.80
2018-10-17T02:55:09.182Z,11.90
2018-10-17T02:57:37.460Z,11.80
2018-10-17T03:00:05.837Z,11.80
2018-10-17T03:02:33.559Z,11.80
2018-10-17T03:05:01.532Z,11.80
2018-10-17T03:07:29.298Z,11.80
2018-10-17T03:09:57.127Z,11.80
2018-10-17T03:12:25.358Z,11.80
2018-10-17T03:14:53.159Z,11.80
2018-10-17T03:17:21.073Z,11.80
2018-10-17T03:19:48.915Z,11.90
2018-10-17T03:22:16.995Z,11.90
2018-10-17T03:24:45.202Z,11.90
2018-10-17T03:27:12.960Z,11.80
2018-10-17T03:29:40.745Z,11.80
2018-10-17T03:32:08.771Z,11.80
2018-10-17T03:34:36.595Z,11.80
2018-10-17T03:37:04.599Z,11.80
2018-10-17T03:39:32.523Z,11.80
2018-10-17T03:42:00.504Z,11.80
2018-10-17T03:44:28.326Z,11.80
2018-10-17T03:46:56.395Z,11.70
2018-10-17T03:49:24.241Z,11.80
2018-10-17T03:51:52.058Z,11.80
2018-10-17T03:54:19.796Z,11.80
2018-10-17T03:56:47.639Z,11.70
2018-10-17T03:59:15.460Z,11.60
2018-10-17T04:01:43.203Z,11.60
2018-10-17T04:04:10.955Z,11.70
2018-10-17T04:06:38.976Z,11.70
2018-10-17T04:09:06.954Z,11.70
2018-10-17T04:11:34.716Z,11.60
2018-10-17T04:14:02.495Z,11.60
2018-10-17T04:16:30.474Z,11.60
2018-10-17T04:18:58.285Z,11.60
2018-10-17T04:21:26.233Z,11.50
2018-10-17T04:23:54.190Z,11.50
2018-10-17T04:26:21.940Z,11.40
2018-10-17T04:28:49.886Z,11.40
2018-10-17T04:31:17.842Z,11.40
2018-10-17T04:33:45.712Z,11.40
2018-10-17T04:36:13.752Z,11.40
2018-10-17T04:38:41.458Z,11.40
2018-10-17T04:41:09.240Z,11.40
2018-10-17T04:43:36.968Z,11.40
2018-10-17T04:46:05.132Z,11.40
2018-10-17T04:48:33.068Z,11.40
2018-10-17T04:51:00.804Z,11.40
2018-10-17T04:53:28.732Z,11.40
2018-10-17T04:55:56.651Z,11.40
2018-10-17T04:58:24.579Z,11.40
2018-10-17T05:00:52.426Z,11.40
2018-10-17T05:03:20.433Z,11.40
2018-10-17T05:05:48.311Z,11.30
2018-10-17T05:08:16.260Z,11.40
2018-10-17T05:10:44.030Z,11.30
2018-10-17T05:13:11.876Z,11.30
2018-10-17T05:15:39.579Z,11.30
2018-10-17T05:18:07.374Z,11.30
2018-10-17T05:20:35.192Z,11.30
2018-10-17T05:23:03.185Z,11.30
2018-10-17T05:25:30.915Z,11.30
2018-10-17T05:27:58.740Z,11.30
2018-10-17T05:30:26.444Z,11.30
2018-10-17T05:32:54.390Z,11.30
2018-10-17T05:35:22.262Z,11.30
2018-10-17T05:37:50.168Z,11.30
2018-10-17T05:40:17.975Z,11.30
2018-10-17T05:42:45.686Z,11.30
2018-10-17T05:45:13.649Z,11.30
2018-10-17T05:47:41.419Z,11.20
2018-10-17T05:50:09.257Z,11.30
2018-10-17T05:52:37.244Z,11.30
2018-10-17T05:55:05.443Z,11.30
2018-10-17T05:57:33.250Z,11.30
2018-10-17T06:00:01.097Z,11.20
2018-10-17T06:02:33.889Z,11.20
2018-10-17T06:05:01.703Z,11.20
2018-10-17T06:07:30.673Z,11.20
2018-10-17T06:09:58.652Z,11.20
2018-10-17T06:12:26.621Z,11.30
2018-10-17T06:14:54.589Z,11.30
2018-10-17T06:17:22.425Z,11.30
2018-10-17T06:19:50.320Z,11.40
2018-10-17T06:22:18.072Z,11.30
2018-10-17T06:24:45.960Z,11.30
2018-10-17T06:27:13.824Z,11.40
2018-10-17T06:29:41.804Z,11.40
2018-10-17T06:32:09.636Z,11.50
2018-10-17T06:34:37.639Z,11.50
2018-10-17T06:37:05.696Z,11.50
2018-10-17T06:39:33.443Z,11.60
2018-10-17T06:42:01.176Z,11.60
2018-10-17T06:44:28.890Z,11.70
2018-10-17T06:46:56.725Z,11.70
2018-10-17T06:49:24.518Z,11.70
2018-10-17T06:51:52.287Z,11.80
2018-10-17T06:54:20.047Z,11.80
2018-10-17T06:56:48.134Z,11.80
2018-10-17T06:59:15.923Z,11.90
2018-10-17T07:01:43.707Z,11.90
2018-10-17T07:04:11.507Z,11.90
2018-10-17T07:06:39.490Z,12.00
2018-10-17T07:09:08.072Z,12.00
2018-10-17T07:11:36.274Z,12.00
2018-10-17T07:14:04.101Z,12.00
2018-10-17T07:16:31.877Z,12.10
2018-10-17T07:18:59.965Z,12.20
2018-10-17T07:21:27.860Z,12.20
2018-10-17T07:23:55.838Z,12.30
2018-10-17T07:26:23.953Z,12.30
2018-10-17T07:28:52.047Z,12.30
2018-10-17T07:31:19.671Z,12.40
2018-10-17T07:33:47.654Z,12.50
2018-10-17T07:36:15.532Z,12.60
2018-10-17T07:38:43.294Z,12.60
2018-10-17T07:41:11.135Z,12.70
2018-10-17T07:43:39.068Z,12.80
2018-10-17T07:46:06.823Z,12.90
2018-10-17T07:48:34.647Z,13.00
2018-10-17T07:51:08.951Z,13.10
2018-10-17T07:53:36.984Z,13.20
2018-10-17T07:56:04.953Z,13.30
2018-10-17T07:58:32.897Z,13.40
2018-10-17T08:01:00.932Z,13.60
2018-10-17T08:03:28.811Z,13.60
2018-10-17T08:05:56.577Z,13.80
2018-10-17T08:08:24.757Z,13.90
2018-10-17T08:10:52.680Z,14.00
2018-10-17T08:13:20.435Z,14.10
2018-10-17T08:15:48.166Z,14.20
2018-10-17T08:18:16.176Z,14.20
2018-10-17T08:20:43.838Z,14.30
2018-10-17T08:23:11.735Z,14.40
2018-10-17T08:25:39.511Z,14.40
2018-10-17T08:28:07.394Z,14.60
2018-10-17T08:30:35.216Z,14.70
2018-10-17T08:33:03.016Z,14.80
2018-10-17T08:35:31.061Z,15.00
2018-10-17T08:37:58.731Z,15.00
2018-10-17T08:40:26.536Z,15.10
2018-10-17T08:42:54.296Z,15.20
2018-10-17T08:45:22.162Z,15.40
2018-10-17T08:47:50.147Z,15.50
2018-10-17T08:50:18.000Z,15.60
2018-10-17T08:52:45.816Z,15.70
2018-10-17T08:55:13.635Z,15.70
2018-10-17T08:57:41.436Z,15.90
2018-10-17T09:00:09.420Z,15.90
2018-10-17T09:02:37.287Z,16.00
2018-10-17T09:05:05.025Z,16.00
2018-10-17T09:07:32.929Z,16.10
2018-10-17T09:10:00.681Z,16.20
2018-10-17T09:12:28.596Z,16.30
2018-10-17T09:14:56.550Z,16.40
2018-10-17T09:17:24.558Z,16.50
2018-10-17T09:19:52.696Z,16.60
2018-10-17T09:22:20.574Z,16.70
2018-10-17T09:24:48.279Z,16.90
2018-10-17T09:27:16.239Z,17.00
2018-10-17T09:29:44.064Z,17.20
2018-10-17T09:32:11.889Z,17.30
2018-10-17T09:34:39.738Z,17.40
2018-10-17T09:37:07.466Z,17.60
2018-10-17T09:39:35.234Z,17.70
2018-10-17T09:42:03.184Z,17.80
2018-10-17T09:44:30.895Z,17.90
2018-10-17T09:46:58.842Z,18.10
2018-10-17T09:49:26.959Z,18.10
2018-10-17T09:51:54.740Z,18.30
2018-10-17T09:54:22.676Z,18.40
2018-10-17T09:56:50.519Z,18.40
2018-10-17T09:59:18.289Z,18.50
2018-10-17T10:01:53.865Z,18.70
2018-10-17T10:04:22.400Z,18.60
2018-10-17T10:06:50.237Z,18.70
2018-10-17T10:09:18.002Z,18.80
2018-10-17T10:11:45.741Z,18.80
2018-10-17T10:14:13.885Z,18.80
2018-10-17T10:16:41.749Z,18.90
2018-10-17T10:19:09.668Z,19.00
2018-10-17T10:21:37.698Z,19.00
2018-10-17T10:24:05.531Z,19.00
2018-10-17T10:26:33.527Z,19.00
2018-10-17T10:29:01.312Z,19.10
2018-10-17T10:31:29.161Z,19.10
2018-10-17T10:33:57.063Z,19.20
2018-10-17T10:36:24.877Z,19.30
2018-10-17T10:38:52.708Z,19.40
2018-10-17T10:41:20.519Z,19.50
2018-10-17T10:43:48.434Z,19.50
2018-10-17T10:46:16.259Z,19.60
2018-10-17T10:48:44.240Z,19.60
2018-10-17T10:51:12.210Z,19.70
2018-10-17T10:53:40.026Z,19.80
2018-10-17T10:56:07.851Z,19.90
2018-10-17T10:58:35.891Z,19.90
2018-10-17T11:01:03.743Z,20.00
2018-10-17T11:03:31.753Z,20.10
2018-10-17T11:05:59.528Z,20.20
2018-10-17T11:08:27.383Z,20.20
2018-10-17T11:10:55.522Z,20.30
2018-10-17T11:13:23.407Z,20.30
2018-10-17T11:15:51.251Z,20.30
2018-10-17T11:18:19.007Z,20.40
2018-10-17T11:20:46.915Z,20.50
2018-10-17T11:23:15.101Z,20.50
2018-10-17T11:25:42.920Z,20.60
2018-10-17T11:28:10.984Z,20.70
2018-10-17T11:30:38.795Z,20.70
2018-10-17T11:33:06.566Z,20.80
2018-10-17T11:35:34.335Z,20.80
2018-10-17T11:38:02.412Z,20.90
2018-10-17T11:40:30.635Z,20.90
2018-10-17T11:42:58.347Z,21.00
2018-10-17T11:45:26.237Z,21.00
2018-10-17T11:47:54.142Z,21.10
2018-10-17T11:50:21.898Z,21.20
2018-10-17T11:52:49.622Z,21.30
2018-10-17T11:55:17.449Z,21.30
2018-10-17T11:57:45.182Z,21.30
2018-10-17T12:00:13.790Z,21.30
2018-10-17T12:02:41.621Z,21.30
2018-10-17T12:05:11.716Z,21.30
2018-10-17T12:07:39.544Z,21.30
2018-10-17T12:10:07.519Z,21.30
2018-10-17T12:12:35.690Z,21.30
2018-10-17T12:15:03.672Z,21.30
2018-10-17T12:17:31.521Z,21.40
2018-10-17T12:19:59.370Z,21.50
2018-10-17T12:22:27.139Z,21.50
2018-10-17T12:24:54.909Z,21.50
2018-10-17T12:27:23.172Z,21.60
2018-10-17T12:29:51.115Z,21.70
2018-10-17T12:32:18.896Z,21.70
2018-10-17T12:34:46.787Z,21.80
2018-10-17T12:37:14.580Z,21.80
2018-10-17T12:39:42.425Z,21.90
2018-10-17T12:42:10.356Z,21.90
2018-10-17T12:44:38.469Z,22.00
2018-10-17T12:47:06.532Z,22.10
2018-10-17T12:49:34.452Z,22.10
2018-10-17T12:52:02.281Z,22.20
2018-10-17T12:54:29.999Z,22.20
2018-10-17T12:56:57.874Z,22.30
2018-10-17T12:59:25.630Z,22.30
2018-10-17T13:01:53.567Z,22.30
2018-10-17T13:04:21.473Z,22.40
2018-10-17T13:06:49.483Z,22.40
2018-10-17T13:09:17.454Z,22.40
2018-10-17T13:11:45.303Z,22.50
2018-10-17T13:14:13.064Z,22.50
2018-10-17T13:16:40.846Z,22.50
2018-10-17T13:19:08.764Z,22.50
2018-10-17T13:21:36.520Z,22.60
2018-10-17T13:24:05.102Z,22.60
2018-10-17T13:26:32.913Z,22.70
2018-10-17T13:29:00.864Z,22.80
2018-10-17T13:31:28.998Z,22.80
2018-10-17T13:33:56.892Z,22.80
2018-10-17T13:36:24.829Z,22.70
2018-10-17T13:38:52.584Z,22.70
2018-10-17T13:41:20.487Z,22.70
2018-10-17T13:43:48.259Z,22.80
2018-10-17T13:46:16.131Z,22.90
2018-10-17T13:48:43.996Z,23.00
2018-10-17T13:51:11.968Z,23.20
2018-10-17T13:53:39.824Z,23.20
2018-10-17T13:56:07.659Z,23.40
2018-10-17T13:58:35.432Z,23.40
2018-10-17T14:01:03.304Z,23.50
2018-10-17T14:03:31.279Z,23.50
2018-10-17T14:05:59.101Z,23.30
2018-10-17T14:08:27.020Z,23.30
2018-10-17T14:10:55.019Z,23.20
2018-10-17T14:13:22.816Z,23.20
2018-10-17T14:15:50.722Z,23.30
2018-10-17T14:18:18.659Z,23.10
2018-10-17T14:20:46.765Z,23.10
2018-10-17T14:23:14.640Z,23.10
2018-10-17T14:25:42.625Z,23.10
2018-10-17T14:28:11.004Z,23.10
2018-10-17T14:30:38.816Z,23.10
2018-10-17T14:33:06.737Z,23.10
2018-10-17T14:35:34.760Z,23.00
2018-10-17T14:38:02.915Z,23.00
2018-10-17T14:40:30.681Z,23.00
2018-10-17T14:42:58.687Z,23.00
2018-10-17T14:45:26.527Z,23.00
2018-10-17T14:47:54.341Z,23.00
2018-10-17T14:50:22.296Z,23.00
2018-10-17T14:52:50.044Z,22.90
2018-10-17T14:55:17.934Z,22.90
2018-10-17T14:57:45.899Z,22.90
2018-10-17T15:00:15.085Z,22.70
2018-10-17T15:02:43.459Z,22.60
2018-10-17T15:05:11.808Z,22.50
2018-10-17T15:07:40.310Z,22.50
2018-10-17T15:10:08.407Z,22.50
2018-10-17T15:12:36.183Z,22.60
2018-10-17T15:15:04.096Z,22.50
2018-10-17T15:17:31.996Z,22.60
2018-10-17T15:20:00.045Z,22.60
2018-10-17T15:22:28.040Z,22.50
2018-10-17T15:24:55.940Z,22.60
2018-10-17T15:27:23.884Z,22.60
2018-10-17T15:29:53.884Z,22.60
2018-10-17T15:32:21.879Z,22.50
2018-10-17T15:34:49.713Z,22.40
2018-10-17T15:37:17.666Z,22.40
2018-10-17T15:39:45.627Z,22.40
2018-10-17T15:42:13.631Z,22.30
2018-10-17T15:44:41.470Z,22.30
2018-10-17T15:47:09.368Z,22.20
2018-10-17T15:49:37.215Z,22.20
2018-10-17T15:52:05.254Z,22.00
2018-10-17T15:54:33.232Z,22.00
2018-10-17T15:57:00.995Z,21.90
2018-10-17T15:59:29.380Z,21.80
2018-10-17T16:01:57.238Z,21.80
2018-10-17T16:04:25.105Z,21.70
2018-10-17T16:06:52.929Z,21.70
2018-10-17T16:09:20.721Z,21.60
2018-10-17T16:11:48.475Z,21.50
2018-10-17T16:14:16.363Z,21.40
2018-10-17T16:16:44.343Z,21.40
2018-10-17T16:19:12.248Z,21.30
2018-10-17T16:21:40.055Z,21.20
2018-10-17T16:24:08.179Z,21.10
2018-10-17T16:26:36.221Z,21.00
2018-10-17T16:29:04.173Z,20.90
2018-10-17T16:31:32.003Z,20.80
2018-10-17T16:34:00.023Z,20.70
2018-10-17T16:36:27.836Z,20.60
2018-10-17T16:38:55.698Z,20.50
2018-10-17T16:41:23.523Z,20.30
2018-10-17T16:43:51.479Z,20.20
2018-10-17T16:46:19.368Z,20.10
2018-10-17T16:48:47.490Z,20.00
2018-10-17T16:51:15.415Z,20.00
2018-10-17T16:53:43.409Z,19.90
2018-10-17T16:56:11.393Z,19.80
2018-10-17T16:58:39.345Z,19.70
2018-10-17T17:01:07.170Z,19.60
2018-10-17T17:03:35.359Z,19.50
2018-10-17T17:06:03.171Z,19.30
2018-10-17T17:08:31.036Z,19.30
2018-10-17T17:10:59.220Z,19.10
2018-10-17T17:13:27.294Z,18.90
2018-10-17T17:15:55.280Z,18.90
2018-10-17T17:18:23.262Z,18.80
2018-10-17T17:20:51.058Z,18.80
2018-10-17T17:23:19.005Z,18.60
2018-10-17T17:25:46.844Z,18.50
2018-10-17T17:28:14.901Z,18.30
2018-10-17T17:30:42.864Z,18.30
2018-10-17T17:33:11.128Z,18.20
2018-10-17T17:35:38.930Z,18.10
2018-10-17T17:38:07.000Z,18.10
2018-10-17T17:40:34.912Z,18.00
2018-10-17T17:43:02.761Z,18.00
2018-10-17T17:47:58.565Z,17.70
2018-10-17T17:50:26.515Z,17.70
2018-10-17T17:55:22.240Z,17.60
2018-10-17T17:57:50.192Z,17.50
2018-10-17T18:00:18.138Z,17.50
2018-10-17T18:02:46.154Z,17.40
2018-10-17T18:05:13.990Z,17.20
2018-10-17T18:07:41.800Z,17.10
2018-10-17T18:10:10.049Z,17.00
2018-10-17T18:12:38.161Z,16.90
2018-10-17T18:15:06.564Z,16.80
2018-10-17T18:17:34.550Z,16.70
2018-10-17T18:20:02.546Z,16.60
2018-10-17T18:22:30.483Z,16.60
2018-10-17T18:24:58.504Z,16.60
2018-10-17T18:27:26.736Z,16.40
2018-10-17T18:29:54.725Z,16.40
2018-10-17T18:32:22.639Z,16.40
2018-10-17T18:34:50.850Z,16.30
2018-10-17T18:37:19.254Z,16.20
2018-10-17T18:39:47.144Z,16.20
2018-10-17T18:42:15.464Z,16.10
2018-10-17T18:44:43.744Z,15.90
2018-10-17T18:47:11.562Z,15.80
2018-10-17T18:49:39.481Z,15.80
2018-10-17T18:52:07.707Z,15.80
2018-10-17T18:54:35.692Z,15.70
2018-10-17T18:57:05.021Z,15.50
2018-10-17T18:59:32.954Z,15.40
2018-10-17T19:02:01.291Z,15.40
2018-10-17T19:04:29.589Z,15.40
2018-10-17T19:06:57.502Z,15.30
2018-10-17T19:09:25.379Z,15.30
2018-10-17T19:11:53.381Z,15.10
2018-10-17T19:14:21.308Z,14.90
2018-10-17T19:16:49.379Z,14.90
2018-10-17T19:19:17.291Z,14.80
2018-10-17T19:21:45.234Z,14.80
2018-10-17T19:24:13.247Z,14.70
2018-10-17T19:26:41.265Z,14.60
2018-10-17T19:29:09.186Z,14.60
2018-10-17T19:31:37.284Z,14.50
2018-10-17T19:34:05.584Z,14.50
2018-10-17T19:36:33.623Z,14.40
2018-10-17T19:39:01.709Z,14.40
2018-10-17T19:41:29.685Z,14.40
2018-10-17T19:43:57.693Z,14.30
2018-10-17T19:46:25.516Z,14.30
2018-10-17T19:48:53.577Z,14.30
2018-10-17T19:51:21.501Z,14.30
2018-10-17T19:53:49.583Z,14.30
2018-10-17T19:56:17.734Z,14.20
2018-10-17T19:58:45.632Z,14.20
2018-10-17T20:01:13.848Z,14.10
2018-10-17T20:03:41.684Z,14.00
2018-10-17T20:06:09.640Z,13.90
2018-10-17T20:08:37.515Z,14.00
2018-10-17T20:11:05.530Z,13.90
2018-10-17T20:13:33.359Z,13.90
2018-10-17T20:16:01.227Z,14.00
2018-10-17T20:18:29.068Z,14.00
2018-10-17T20:20:57.063Z,13.90
2018-10-17T20:23:24.821Z,13.80
2018-10-17T20:25:52.945Z,13.70
2018-10-17T20:28:20.923Z,13.70
2018-10-17T20:30:49.012Z,13.60
2018-10-17T20:33:16.978Z,13.50
2018-10-17T20:35:44.821Z,13.40
2018-10-17T20:38:12.906Z,13.30
2018-10-17T20:40:40.762Z,13.30
2018-10-17T20:43:08.643Z,13.30
2018-10-17T20:45:36.841Z,13.30
2018-10-17T20:48:04.711Z,13.30
2018-10-17T20:50:32.531Z,13.30
2018-10-17T20:53:00.364Z,13.30
2018-10-17T20:55:28.301Z,13.30
2018-10-17T20:57:56.273Z,13.30
2018-10-17T21:00:24.111Z,13.10
2018-10-17T21:02:52.165Z,13.10
2018-10-17T21:05:19.967Z,13.20
2018-10-17T21:07:47.954Z,13.20
2018-10-17T21:10:15.968Z,13.20
2018-10-17T21:12:43.738Z,13.10
2018-10-17T21:15:11.579Z,13.00
2018-10-17T21:17:39.494Z,13.00
2018-10-17T21:20:07.419Z,13.00
2018-10-17T21:22:35.127Z,13.00
2018-10-17T21:25:03.060Z,13.00
2018-10-17T21:27:30.886Z,12.80
2018-10-17T21:29:58.681Z,12.80
2018-10-17T21:32:26.573Z,12.80
2018-10-17T21:34:54.366Z,12.80
2018-10-17T21:37:22.385Z,12.80
2018-10-17T21:39:50.212Z,12.80
2018-10-17T21:42:18.034Z,12.80
2018-10-17T21:44:46.019Z,12.70
2018-10-17T21:47:13.935Z,12.70
2018-10-17T21:49:41.773Z,12.70
2018-10-17T21:52:09.757Z,12.70
2018-10-17T21:54:37.659Z,12.70
2018-10-17T21:57:06.018Z,12.60
2018-10-17T21:59:33.910Z,12.60
2018-10-17T22:02:01.838Z,12.60
2018-10-17T22:04:29.658Z,12.60
2018-10-17T22:06:57.568Z,12.70
2018-10-17T22:09:25.353Z,12.60
2018-10-17T22:11:53.096Z,12.50
2018-10-17T22:14:20.927Z,12.30
2018-10-17T22:16:54.322Z,12.20
2018-10-17T22:19:22.288Z,12.20
2018-10-17T22:21:50.247Z,12.10
2018-10-17T22:24:18.238Z,12.00
2018-10-17T22:26:46.064Z,12.00
2018-10-17T22:29:13.822Z,12.00
2018-10-17T22:31:41.682Z,12.00
2018-10-17T22:34:09.472Z,11.90
2018-10-17T22:36:37.287Z,11.90
2018-10-17T22:39:07.872Z,11.90
2018-10-17T22:41:35.927Z,11.90
2018-10-17T22:44:03.716Z,11.80
2018-10-17T22:46:31.590Z,11.80
2018-10-17T22:48:59.318Z,11.80
2018-10-17T22:51:27.095Z,11.80
2018-10-17T22:53:54.982Z,11.80
2018-10-17T22:56:22.806Z,11.80
2018-10-17T22:58:50.638Z,11.70
2018-10-17T23:01:18.485Z,11.70
2018-10-17T23:03:46.469Z,11.60
2018-10-17T23:06:14.606Z,11.60
2018-10-17T23:08:42.470Z,11.60
2018-10-17T23:11:10.366Z,11.70
2018-10-17T23:13:38.409Z,11.70
2018-10-17T23:16:06.413Z,11.70
2018-10-17T23:18:34.180Z,11.60
2018-10-17T23:21:01.894Z,11.60
2018-10-17T23:23:29.782Z,11.50
2018-10-17T23:25:57.694Z,11.40
2018-10-17T23:28:25.626Z,11.40
2018-10-17T23:30:53.644Z,11.30
2018-10-17T23:33:21.568Z,11.30
2018-10-17T23:35:49.283Z,11.30
2018-10-17T23:38:17.201Z,11.30
2018-10-17T23:40:44.957Z,11.30
2018-10-17T23:43:12.906Z,11.20
2018-10-17T23:45:40.614Z,11.20
2018-10-17T23:48:09.239Z,11.20
2018-10-17T23:50:37.785Z,11.10
2018-10-17T23:53:05.630Z,11.10
2018-10-17T23:55:33.379Z,11.10
2018-10-17T23:58:01.167Z,11.10
